Time;durP1;ratioP1;P1;durP2;ratioP2;P2;SDS_P1;SDS_P2;PMS_P1;PMS_P2;Temp;Humidity;BMP_temperature;BMP_pressure;BME280_temperature;BME280_humidity;BME280_pressure;Samples;Min_cycle;Max_cycle;Signal;HPM_P1;HPM_P2
2022/07/03 00:01:37;;;;;;;5.47;4.90;;;;;;;26.29;71.27;99785.59;5049857;28;20192;-65
2022/07/03 00:04:04;;;;;;;5.13;4.93;;;;;;;26.26;71.25;99780.63;5052927;28;20205;-65
2022/07/03 00:06:33;;;;;;;5.40;5.10;;;;;;;26.16;72.05;99763.13;5051221;28;20207;-65
2022/07/03 00:09:00;;;;;;;6.33;5.87;;;;;;;26.18;72.29;99772.56;5044205;28;20225;-65
2022/07/03 00:11:27;;;;;;;6.40;6.00;;;;;;;26.15;72.20;99771.97;5049532;28;20197;-65
2022/07/03 00:13:56;;;;;;;5.87;5.47;;;;;;;26.10;72.61;99772.41;5037347;28;20570;-65
2022/07/03 00:16:23;;;;;;;5.93;5.63;;;;;;;26.07;72.44;99770.84;5052709;28;20211;-65
2022/07/03 00:18:49;;;;;;;5.47;5.17;;;;;;;26.03;72.99;99777.38;5051478;28;20196;-65
2022/07/03 00:21:20;;;;;;;6.37;4.90;;;;;;;25.98;72.73;99771.66;5033157;28;20198;-65
2022/07/03 00:23:52;;;;;;;4.80;4.60;;;;;;;25.90;73.32;99768.91;5040272;28;20263;-65
2022/07/03 00:26:21;;;;;;;6.10;5.80;;;;;;;25.82;73.48;99766.09;5047635;28;20196;-66
2022/07/03 00:28:49;;;;;;;5.20;4.90;;;;;;;25.78;73.38;99762.09;5033567;28;20201;-65
2022/07/03 00:31:17;;;;;;;5.53;5.07;;;;;;;25.68;74.39;99753.34;5045083;28;20201;-66
2022/07/03 00:33:45;;;;;;;5.43;5.03;;;;;;;25.61;74.64;99757.47;5043795;28;20201;-65
2022/07/03 00:36:13;;;;;;;5.50;5.03;;;;;;;25.52;74.50;99747.78;5050944;28;20208;-65
2022/07/03 00:38:40;;;;;;;5.13;4.93;;;;;;;25.57;74.43;99750.81;5052399;28;20224;-65
2022/07/03 00:41:08;;;;;;;4.93;4.63;;;;;;;25.43;74.53;99732.75;5041341;28;20307;-65
2022/07/03 00:43:35;;;;;;;6.07;5.57;;;;;;;25.53;74.69;99750.25;5048514;28;20197;-65
2022/07/03 00:46:08;;;;;;;5.93;5.57;;;;;;;25.47;75.87;99744.66;5051748;28;20680;-65
2022/07/03 00:48:38;;;;;;;5.60;5.30;;;;;;;25.39;76.17;99739.25;5052106;28;20296;-65
2022/07/03 00:51:07;;;;;;;5.90;5.60;;;;;;;25.33;76.60;99737.16;5051190;28;20270;-65
2022/07/03 00:53:38;;;;;;;6.97;5.97;;;;;;;25.28;76.63;99734.91;5051056;28;20204;-65
2022/07/03 00:56:05;;;;;;;6.10;5.80;;;;;;;25.24;77.18;99740.53;5046584;28;20251;-65
2022/07/03 00:58:34;;;;;;;6.80;6.27;;;;;;;25.26;77.17;99738.63;5046998;28;20201;-65
2022/07/03 01:01:01;;;;;;;6.20;5.90;;;;;;;25.24;77.16;99737.91;5050012;28;20255;-65
2022/07/03 01:03:32;;;;;;;6.07;5.77;;;;;;;25.22;77.20;99742.47;5045309;28;20223;-65
2022/07/03 01:06:09;;;;;;;6.87;6.30;;;;;;;25.16;76.85;99735.97;5039701;28;20197;-65
2022/07/03 01:08:44;;;;;;;5.97;5.67;;;;;;;25.10;77.39;99746.16;5051695;28;20223;-65
2022/07/03 01:11:21;;;;;;;5.77;5.47;;;;;;;25.01;77.76;99743.31;5050535;28;20687;-65
2022/07/03 01:14:05;;;;;;;5.87;5.57;;;;;;;24.96;77.86;99735.03;5050972;28;20204;-65
2022/07/03 01:16:48;;;;;;;6.57;6.07;;;;;;;24.90;78.64;99729.47;5050259;28;20238;-66
2022/07/03 01:19:35;;;;;;;5.93;5.63;;;;;;;24.84;78.91;99720.31;5045130;28;20208;-65
2022/07/03 01:22:27;;;;;;;6.10;5.70;;;;;;;24.78;79.15;99720.78;5051216;28;20246;-65
2022/07/03 01:25:08;;;;;;;6.37;6.07;;;;;;;24.77;79.88;99727.00;5050164;28;20197;-65
2022/07/03 01:27:57;;;;;;;5.97;5.63;;;;;;;24.73;79.97;99722.97;5087940;27;20541;-67
2022/07/03 01:30:25;;;;;;;6.33;5.93;;;;;;;24.72;80.69;99725.75;5087730;28;20203;-67
2022/07/03 01:32:58;;;;;;;7.27;6.53;;;;;;;24.68;80.95;99725.16;5087452;28;20221;-67
2022/07/03 01:35:29;;;;;;;6.57;6.07;;;;;;;24.65;81.76;99729.81;5088274;28;20560;-67
2022/07/03 01:37:57;;;;;;;7.30;6.70;;;;;;;24.67;82.35;99727.91;5087968;28;20200;-67
2022/07/03 01:40:25;;;;;;;7.43;7.03;;;;;;;24.61;83.08;99729.25;5088059;28;20560;-67
2022/07/03 01:42:53;;;;;;;6.00;5.60;;;;;;;24.51;83.89;99728.34;5086823;28;20682;-67
2022/07/03 01:45:21;;;;;;;6.97;6.47;;;;;;;24.46;84.39;99720.00;5087272;28;20195;-67
2022/07/03 01:47:49;;;;;;;6.37;5.83;;;;;;;24.40;84.22;99726.59;5086682;28;20198;-67
2022/07/03 01:50:16;;;;;;;5.20;4.90;;;;;;;24.37;84.48;99726.00;5087722;28;20576;-67
2022/07/03 01:52:45;;;;;;;6.57;5.77;;;;;;;24.22;84.18;99714.16;5086466;28;20726;-67
2022/07/03 01:55:13;;;;;;;6.20;5.80;;;;;;;24.35;84.63;99727.94;5086021;28;20195;-67
2022/07/03 01:57:44;;;;;;;5.90;5.50;;;;;;;24.27;84.82;99714.59;5086514;28;20740;-67
2022/07/03 02:00:16;;;;;;;5.87;5.57;;;;;;;24.32;85.32;99717.69;5087228;28;20195;-67
2022/07/03 02:02:49;;;;;;;5.33;5.03;;;;;;;24.31;85.67;99716.03;5086348;28;20207;-66
2022/07/03 02:05:29;;;;;;;5.90;5.60;;;;;;;24.21;85.29;99705.47;5086459;28;20199;-67
2022/07/03 02:08:07;;;;;;;5.20;4.90;;;;;;;24.31;86.10;99714.25;5087182;28;20191;-67
2022/07/03 02:10:39;;;;;;;5.43;5.13;;;;;;;24.31;86.04;99721.25;5087599;28;20223;-67
2022/07/03 02:13:13;;;;;;;5.80;5.40;;;;;;;24.30;86.41;99719.59;5085211;28;20203;-67
2022/07/03 02:15:44;;;;;;;5.97;5.60;;;;;;;24.31;86.25;99727.34;5087048;28;20210;-67
2022/07/03 02:18:22;;;;;;;6.23;5.70;;;;;;;24.29;86.91;99717.94;5084386;28;20203;-67
2022/07/03 02:21:01;;;;;;;6.27;5.97;;;;;;;24.26;87.35;99726.91;5086078;28;20207;-67
2022/07/03 02:23:32;;;;;;;6.67;6.17;;;;;;;24.24;87.01;99720.09;5084790;28;20199;-67
2022/07/03 02:26:04;;;;;;;6.50;5.67;;;;;;;24.20;87.39;99723.94;5086765;28;20661;-67
2022/07/03 02:28:43;;;;;;;6.87;6.20;;;;;;;24.19;87.75;99725.72;5087235;28;20199;-67
2022/07/03 02:31:15;;;;;;;6.07;5.57;;;;;;;24.18;87.63;99725.84;5086088;28;20199;-66
2022/07/03 02:33:44;;;;;;;6.23;5.93;;;;;;;24.06;88.09;99711.94;5085515;28;20201;-67
2022/07/03 02:36:12;;;;;;;7.23;6.73;;;;;;;23.93;89.50;99717.31;5085565;28;20191;-67
2022/07/03 02:38:44;;;;;;;7.10;6.07;;;;;;;23.78;90.17;99729.00;5075507;28;20204;-67
2022/07/03 02:41:18;;;;;;;6.73;5.80;;;;;;;23.67;90.53;99731.66;5073057;28;20287;-66
2022/07/03 02:43:53;;;;;;;6.60;6.10;;;;;;;23.54;91.47;99728.31;5072016;28;20706;-66
2022/07/03 02:46:50;;;;;;;6.27;5.73;;;;;;;23.46;91.77;99733.31;5073210;28;20285;-66
2022/07/03 02:49:24;;;;;;;6.10;5.60;;;;;;;23.36;92.55;99737.59;5072004;28;20208;-67
2022/07/03 02:51:58;;;;;;;6.87;6.37;;;;;;;23.29;93.40;99733.78;5073075;28;20203;-67
2022/07/03 02:54:25;;;;;;;6.03;5.73;;;;;;;23.26;93.57;99734.00;5070231;28;20208;-67
2022/07/03 02:57:05;;;;;;;7.07;6.67;;;;;;;23.12;93.77;99713.31;5072969;28;20687;-67
2022/07/03 02:59:45;;;;;;;7.10;6.70;;;;;;;23.19;94.21;99730.19;5070241;28;20675;-67
2022/07/03 03:02:20;;;;;;;7.37;6.87;;;;;;;23.14;95.09;99734.94;5071810;28;20195;-67
2022/07/03 03:04:57;;;;;;;7.63;7.13;;;;;;;23.12;95.23;99739.44;5070940;28;20671;-67
2022/07/03 03:07:30;;;;;;;7.07;6.43;;;;;;;23.13;94.86;99741.13;5069732;28;20216;-66
2022/07/03 03:09:57;;;;;;;7.33;6.90;;;;;;;23.15;94.86;99737.44;5073035;28;20207;-66
2022/07/03 03:12:31;;;;;;;5.97;5.57;;;;;;;23.16;94.88;99725.19;5072066;28;20200;-66
2022/07/03 03:15:04;;;;;;;7.53;7.03;;;;;;;23.21;94.47;99728.28;5072267;28;20196;-66
2022/07/03 03:17:40;;;;;;;5.73;5.43;;;;;;;23.24;94.64;99735.88;5071469;28;20668;-66
2022/07/03 03:20:09;;;;;;;6.27;5.97;;;;;;;23.27;94.29;99733.03;5071897;28;20200;-66
2022/07/03 03:22:52;;;;;;;7.00;6.27;;;;;;;23.30;94.58;99738.88;5070305;28;20215;-66
2022/07/03 03:25:20;;;;;;;6.57;6.20;;;;;;;23.35;94.20;99736.75;5072366;28;20195;-66
2022/07/03 03:27:47;;;;;;;6.60;6.30;;;;;;;23.40;93.42;99733.78;5072531;28;20212;-66
2022/07/03 03:30:14;;;;;;;7.97;7.27;;;;;;;23.45;93.10;99736.91;5072274;28;20215;-67
2022/07/03 03:32:43;;;;;;;7.20;6.80;;;;;;;23.46;93.01;99736.75;5071551;28;20227;-66
2022/07/03 03:35:10;;;;;;;7.33;6.43;;;;;;;23.47;93.46;99735.81;5070902;28;20192;-66
2022/07/03 03:37:37;;;;;;;6.80;6.20;;;;;;;23.35;94.11;99721.06;5071972;28;20580;-66
2022/07/03 03:40:05;;;;;;;6.57;6.23;;;;;;;23.39;94.45;99735.53;5072449;28;20193;-66
2022/07/03 03:42:32;;;;;;;7.00;6.40;;;;;;;23.35;95.25;99725.44;5072107;28;20588;-66
2022/07/03 03:44:59;;;;;;;6.70;6.30;;;;;;;23.33;95.59;99727.31;5069864;28;20196;-66
2022/07/03 03:47:26;;;;;;;7.03;6.53;;;;;;;23.32;95.79;99728.31;5071792;28;20220;-67
2022/07/03 03:49:55;;;;;;;7.20;6.70;;;;;;;23.40;95.85;99728.56;5070112;28;21067;-66
2022/07/03 03:52:22;;;;;;;7.07;6.57;;;;;;;23.44;96.29;99725.59;5069019;28;20203;-66
2022/07/03 03:54:48;;;;;;;6.17;5.67;;;;;;;23.61;95.19;99737.38;5071524;28;20207;-66
2022/07/03 03:57:17;;;;;;;7.33;6.93;;;;;;;23.71;94.87;99738.31;5071940;28;20188;-66
2022/07/03 03:59:45;;;;;;;6.63;6.23;;;;;;;23.78;94.19;99734.22;5071689;28;20208;-66
2022/07/03 04:02:13;;;;;;;7.47;6.87;;;;;;;23.88;93.76;99729.94;5070595;28;20208;-66
2022/07/03 04:04:39;;;;;;;6.77;6.20;;;;;;;23.97;93.19;99731.81;5070901;28;20199;-66
2022/07/03 04:07:08;;;;;;;6.77;6.37;;;;;;;24.01;93.75;99733.22;5071396;28;20215;-66
2022/07/03 04:09:35;;;;;;;7.33;6.77;;;;;;;24.05;93.65;99737.28;5071240;28;20694;-66
2022/07/03 04:12:02;;;;;;;7.00;6.60;;;;;;;24.05;93.70;99720.72;5071512;28;20200;-66
2022/07/03 04:14:29;;;;;;;6.30;6.00;;;;;;;24.09;93.92;99734.41;5070302;28;20423;-66
2022/07/03 04:16:56;;;;;;;6.93;6.53;;;;;;;24.12;93.94;99729.78;5071246;28;20199;-67
2022/07/03 04:19:23;;;;;;;6.50;6.20;;;;;;;24.16;94.64;99733.84;5071681;28;20192;-66
2022/07/03 04:21:51;;;;;;;6.87;6.20;;;;;;;24.21;93.73;99738.69;5070016;28;20207;-66
2022/07/03 04:24:20;;;;;;;7.37;6.97;;;;;;;24.26;93.58;99737.38;5071194;28;20701;-66
2022/07/03 04:26:47;;;;;;;6.93;6.63;;;;;;;24.39;93.76;99745.06;5070897;28;20311;-66
2022/07/03 04:29:14;;;;;;;7.17;6.67;;;;;;;24.47;93.42;99737.41;5071166;28;20200;-66
2022/07/03 04:31:41;;;;;;;7.77;7.27;;;;;;;24.63;91.94;99729.09;5071249;28;20200;-66
2022/07/03 04:34:08;;;;;;;6.80;6.23;;;;;;;24.78;91.23;99735.72;5070739;28;20202;-66
2022/07/03 04:36:35;;;;;;;7.23;6.73;;;;;;;24.96;90.69;99735.03;5071196;28;20580;-66
2022/07/03 04:39:02;;;;;;;7.73;7.30;;;;;;;25.07;88.86;99742.00;5070886;28;20198;-66
2022/07/03 04:41:30;;;;;;;6.87;6.47;;;;;;;25.14;90.12;99731.81;5071040;28;20687;-66
2022/07/03 04:43:57;;;;;;;6.70;6.40;;;;;;;25.33;87.65;99742.41;5069087;28;20200;-66
2022/07/03 04:46:23;;;;;;;6.97;6.47;;;;;;;25.38;87.95;99721.84;5069610;28;20197;-67
2022/07/03 04:48:50;;;;;;;7.27;6.87;;;;;;;25.61;86.75;99746.97;5069936;28;20679;-67
2022/07/03 04:51:17;;;;;;;7.60;7.10;;;;;;;25.78;86.01;99743.72;5069759;28;20200;-66
2022/07/03 04:53:44;;;;;;;6.87;6.47;;;;;;;25.91;84.85;99756.59;5069793;28;20204;-66
2022/07/03 04:56:11;;;;;;;7.03;6.57;;;;;;;26.08;85.92;99740.16;5071013;28;20672;-66
2022/07/03 04:58:39;;;;;;;6.80;6.50;;;;;;;26.27;85.45;99734.94;5070928;28;20278;-67
2022/07/03 05:01:06;;;;;;;6.87;6.17;;;;;;;26.56;84.93;99729.69;5070190;28;20203;-67
2022/07/03 05:03:33;;;;;;;6.63;6.23;;;;;;;26.94;82.19;99756.00;5070564;28;20207;-67
2022/07/03 05:06:01;;;;;;;6.80;6.30;;;;;;;27.20;80.23;99744.84;5070630;28;20203;-67
2022/07/03 05:08:28;;;;;;;6.67;6.17;;;;;;;27.37;79.06;99741.44;5070687;28;20220;-67
2022/07/03 05:10:54;;;;;;;6.13;5.77;;;;;;;27.64;78.49;99747.59;5070803;28;20672;-67
2022/07/03 05:13:22;;;;;;;6.33;5.83;;;;;;;27.81;77.85;99737.25;5069839;28;20193;-67
2022/07/03 05:15:50;;;;;;;6.20;5.90;;;;;;;28.04;76.44;99749.06;5070774;28;20675;-67
2022/07/03 05:18:17;;;;;;;6.60;6.30;;;;;;;28.27;75.53;99744.22;5070367;28;20199;-67
2022/07/03 05:20:43;;;;;;;7.50;7.00;;;;;;;28.44;74.97;99746.81;5070737;28;20196;-67
2022/07/03 05:23:10;;;;;;;6.57;6.17;;;;;;;28.42;73.52;99734.78;5069379;28;20552;-66
2022/07/03 05:25:37;;;;;;;5.83;5.50;;;;;;;28.66;73.31;99750.81;5070142;28;20696;-67
2022/07/03 05:28:04;;;;;;;6.97;6.37;;;;;;;28.70;72.53;99749.53;5069426;28;20223;-68
2022/07/03 05:30:31;;;;;;;8.00;7.30;;;;;;;28.72;70.93;99752.88;5070481;28;20223;-68
2022/07/03 05:32:59;;;;;;;7.07;6.60;;;;;;;28.60;72.04;99725.03;5070656;28;20592;-67
2022/07/03 05:35:26;;;;;;;6.60;6.17;;;;;;;28.76;71.41;99748.94;5070402;28;20630;-67
2022/07/03 05:37:53;;;;;;;10.33;9.73;;;;;;;28.78;71.42;99744.34;5070397;28;20192;-67
2022/07/03 05:40:19;;;;;;;8.60;8.10;;;;;;;28.92;71.52;99743.75;5070453;28;20192;-73
2022/07/03 05:42:46;;;;;;;8.23;7.63;;;;;;;28.85;69.72;99740.13;5069167;28;20207;-69
2022/07/03 05:45:13;;;;;;;14.60;13.40;;;;;;;28.98;70.48;99742.34;5069017;28;20200;-68
2022/07/03 05:47:40;;;;;;;8.93;8.48;;;;;;;29.05;69.82;99748.63;5068748;28;20223;-68
2022/07/03 05:50:10;;;;;;;8.07;7.30;;;;;;;29.05;68.69;99749.47;5070131;28;20208;-70
2022/07/03 05:52:36;;;;;;;7.00;6.60;;;;;;;29.20;68.27;99741.81;5068292;28;20200;-69
2022/07/03 05:55:04;;;;;;;7.10;6.73;;;;;;;29.34;69.13;99743.88;5067268;28;20198;-70
2022/07/03 05:57:31;;;;;;;9.80;9.10;;;;;;;29.68;69.40;99743.88;5069991;28;20200;-70
2022/07/03 05:59:57;;;;;;;8.80;8.10;;;;;;;29.96;67.33;99750.59;5069402;28;20204;-69
2022/07/03 06:02:24;;;;;;;6.85;6.55;;;;;;;30.01;65.00;99745.69;5069238;28;20196;-71
2022/07/03 06:04:51;;;;;;;6.50;6.20;;;;;;;29.99;63.52;99742.34;5069832;28;20199;-70
2022/07/03 06:07:19;;;;;;;6.60;6.20;;;;;;;30.15;63.66;99744.19;5069990;28;20212;-68
2022/07/03 06:09:48;;;;;;;22.08;17.35;;;;;;;30.12;63.60;99736.59;5070319;28;20207;-68
2022/07/03 06:12:14;;;;;;;24.20;14.90;;;;;;;30.25;62.02;99750.16;5067692;28;20286;-68
2022/07/03 06:14:41;;;;;;;20.83;17.58;;;;;;;30.36;63.96;99741.09;5072338;28;20200;-74
2022/07/03 06:17:08;;;;;;;15.70;14.07;;;;;;;30.49;64.16;99744.94;5073907;28;20200;-76
2022/07/03 06:19:35;;;;;;;13.40;10.93;;;;;;;30.60;63.33;99738.47;5073491;28;20196;-75
2022/07/03 06:22:02;;;;;;;36.72;21.65;;;;;;;30.75;62.70;99752.72;5072696;28;20567;-76
2022/07/03 06:24:30;;;;;;;28.42;14.82;;;;;;;31.02;61.06;99748.91;5071941;28;20195;-69
2022/07/03 06:26:57;;;;;;;10.27;9.25;;;;;;;31.31;60.29;99754.44;5068617;28;20240;-68
2022/07/03 06:29:25;;;;;;;11.13;10.15;;;;;;;31.59;58.74;99752.25;5069603;28;20625;-69
2022/07/03 06:31:52;;;;;;;7.00;6.60;;;;;;;31.71;57.67;99734.94;5073128;28;20196;-68
2022/07/03 06:34:18;;;;;;;6.05;5.75;;;;;;;31.96;57.39;99746.25;5068218;28;20852;-69
2022/07/03 06:36:45;;;;;;;8.95;6.22;;;;;;;31.97;56.27;99756.69;5072110;28;20223;-69
2022/07/03 06:39:12;;;;;;;5.15;4.95;;;;;;;32.12;57.58;99741.72;5070530;28;20778;-69
2022/07/03 06:41:40;;;;;;;5.50;5.25;;;;;;;32.44;54.87;99742.50;5071213;28;20660;-70
2022/07/03 06:44:07;;;;;;;5.93;5.53;;;;;;;32.39;54.88;99743.00;5070090;28;20595;-69
2022/07/03 06:46:34;;;;;;;6.45;6.15;;;;;;;32.46;54.81;99745.78;5072295;28;20200;-69
2022/07/03 06:49:01;;;;;;;5.28;4.97;;;;;;;32.69;52.62;99733.34;5071953;28;20223;-69
2022/07/03 06:51:27;;;;;;;4.68;4.28;;;;;;;32.75;54.45;99740.59;5068717;28;20208;-69
2022/07/03 06:53:54;;;;;;;5.72;5.43;;;;;;;32.99;53.98;99732.38;5071382;28;20207;-69
2022/07/03 06:56:21;;;;;;;5.72;5.32;;;;;;;33.26;51.72;99734.44;5070641;28;20207;-67
2022/07/03 06:58:49;;;;;;;5.70;5.50;;;;;;;33.44;51.72;99731.44;5068236;28;20196;-66
2022/07/03 07:01:16;;;;;;;7.53;5.38;;;;;;;33.67;51.82;99726.81;5067936;28;20683;-66
2022/07/03 07:03:43;;;;;;;7.25;5.85;;;;;;;33.84;51.14;99727.44;5071590;28;20218;-66
2022/07/03 07:06:10;;;;;;;4.93;4.72;;;;;;;33.63;51.15;99724.72;5069505;28;20196;-66
2022/07/03 07:08:37;;;;;;;7.05;5.45;;;;;;;33.75;50.15;99720.56;5068162;28;20584;-65
2022/07/03 07:11:03;;;;;;;6.00;5.60;;;;;;;33.86;52.88;99720.09;5070074;28;20204;-67
2022/07/03 07:13:30;;;;;;;7.68;5.00;;;;;;;34.17;50.04;99722.50;5069106;28;20261;-68
2022/07/03 07:15:58;;;;;;;6.95;5.15;;;;;;;34.25;49.73;99725.84;5071187;28;20200;-66
2022/07/03 07:18:25;;;;;;;5.10;4.90;;;;;;;34.35;48.32;99724.72;5071334;28;20651;-66
2022/07/03 07:20:52;;;;;;;5.53;5.22;;;;;;;34.40;49.26;99724.97;5068542;28;20196;-63
2022/07/03 07:23:19;;;;;;;5.38;5.10;;;;;;;34.49;47.22;99726.47;5070257;28;20196;-66
2022/07/03 07:25:46;;;;;;;5.82;5.43;;;;;;;34.54;46.80;99721.41;5069883;28;20239;-66
2022/07/03 07:28:13;;;;;;;5.90;5.60;;;;;;;34.46;47.77;99717.03;5071395;28;20603;-66
2022/07/03 07:30:40;;;;;;;5.30;5.00;;;;;;;34.58;48.89;99714.66;5068990;28;20204;-66
2022/07/03 07:33:09;;;;;;;5.68;4.93;;;;;;;34.73;48.84;99712.78;5070351;28;20212;-66
2022/07/03 07:35:36;;;;;;;5.00;4.80;;;;;;;34.88;48.67;99716.16;5071504;28;20278;-66
2022/07/03 07:38:03;;;;;;;5.47;5.18;;;;;;;34.97;47.55;99720.31;5071003;28;20200;-66
2022/07/03 07:40:30;;;;;;;4.88;4.68;;;;;;;35.30;45.91;99717.88;5070290;28;20580;-66
2022/07/03 07:42:57;;;;;;;5.32;4.72;;;;;;;35.59;44.20;99720.28;5069911;28;20196;-66
2022/07/03 07:45:23;;;;;;;5.15;4.95;;;;;;;35.68;44.29;99719.09;5070837;28;20204;-66
2022/07/03 07:47:50;;;;;;;6.60;5.30;;;;;;;35.80;45.27;99727.34;5069967;28;20223;-63
2022/07/03 07:50:19;;;;;;;5.65;5.00;;;;;;;35.73;43.80;99711.31;5070908;28;20207;-63
2022/07/03 07:52:45;;;;;;;5.00;4.80;;;;;;;35.91;43.77;99729.41;5072112;28;20652;-63
2022/07/03 07:55:12;;;;;;;5.45;5.15;;;;;;;35.94;42.44;99713.00;5071375;28;20675;-64
2022/07/03 07:57:40;;;;;;;4.43;4.22;;;;;;;36.09;42.63;99727.03;5072017;28;20817;-63
2022/07/03 08:00:09;;;;;;;4.88;4.65;;;;;;;36.22;41.80;99721.69;5070451;28;20200;-63
2022/07/03 08:05:36;;;;;;;4.90;4.70;;;;;;;36.17;42.21;99718.00;5070250;28;20745;-66
2022/07/03 08:08:03;;;;;;;4.97;4.68;;;;;;;36.11;41.43;99725.00;5070449;28;20212;-66
2022/07/03 08:10:30;;;;;;;4.30;4.00;;;;;;;36.06;41.45;99724.75;5071200;28;21536;-66
2022/07/03 08:12:57;;;;;;;5.20;4.28;;;;;;;36.16;41.41;99717.19;5068694;28;20196;-65
2022/07/03 08:15:24;;;;;;;4.30;4.10;;;;;;;36.22;42.13;99711.03;5071340;28;20196;-63
2022/07/03 08:17:51;;;;;;;4.10;4.00;;;;;;;36.25;40.20;99713.28;5067233;28;20197;-63
2022/07/03 08:20:17;;;;;;;4.18;3.97;;;;;;;36.17;39.82;99720.69;5068054;28;20204;-64
2022/07/03 08:22:46;;;;;;;4.38;3.95;;;;;;;36.13;41.35;99722.94;5068684;28;20694;-63
2022/07/03 08:25:12;;;;;;;4.13;3.92;;;;;;;36.09;43.50;99724.34;5068884;28;20204;-62
2022/07/03 08:27:39;;;;;;;4.32;4.13;;;;;;;36.20;40.15;99723.75;5068961;28;20231;-63
2022/07/03 08:30:08;;;;;;;4.72;4.53;;;;;;;36.03;40.80;99724.34;5070123;28;20200;-62
2022/07/03 08:32:34;;;;;;;3.75;3.60;;;;;;;36.02;43.62;99726.19;5070775;28;20679;-62
2022/07/03 08:35:01;;;;;;;4.32;4.13;;;;;;;35.88;41.53;99703.13;5070652;28;20211;-62
2022/07/03 08:37:28;;;;;;;3.78;3.58;;;;;;;35.99;40.82;99726.59;5069497;28;20568;-63
2022/07/03 08:39:57;;;;;;;4.95;4.75;;;;;;;36.17;40.62;99723.34;5068736;28;20681;-65
2022/07/03 08:42:26;;;;;;;4.40;4.22;;;;;;;36.30;41.67;99718.03;5070792;28;20691;-65
2022/07/03 08:44:55;;;;;;;4.75;4.47;;;;;;;36.28;41.23;99720.91;5070849;28;20642;-65
2022/07/03 08:47:23;;;;;;;4.28;3.83;;;;;;;36.37;40.83;99718.84;5069890;28;20200;-65
2022/07/03 08:49:50;;;;;;;4.22;4.03;;;;;;;36.44;40.06;99713.53;5064726;28;20223;-65
2022/07/03 08:52:18;;;;;;;4.55;4.35;;;;;;;36.70;40.83;99713.56;5066595;28;20241;-65
2022/07/03 08:54:44;;;;;;;3.88;3.67;;;;;;;36.70;37.59;99714.38;5070000;28;20210;-66
2022/07/03 08:57:13;;;;;;;4.45;4.25;;;;;;;36.49;38.09;99711.88;5069519;28;20196;-66
2022/07/03 08:59:40;;;;;;;3.95;3.85;;;;;;;36.64;37.88;99719.72;5069763;28;20199;-66
2022/07/03 09:02:07;;;;;;;4.05;3.95;;;;;;;36.75;37.63;99713.72;5067788;28;20691;-65
2022/07/03 09:04:35;;;;;;;4.38;4.18;;;;;;;36.67;39.42;99705.94;5066857;28;20215;-66
2022/07/03 09:07:02;;;;;;;3.92;3.60;;;;;;;36.43;36.98;99717.22;5068211;28;20204;-66
2022/07/03 09:09:29;;;;;;;4.05;3.85;;;;;;;36.30;35.63;99718.84;5068755;28;20222;-65
2022/07/03 09:11:56;;;;;;;3.15;3.05;;;;;;;36.11;35.24;99716.97;5070014;28;20208;-65
2022/07/03 09:14:24;;;;;;;3.22;3.13;;;;;;;36.11;36.88;99714.31;5067901;28;20211;-65
2022/07/03 09:16:52;;;;;;;3.22;3.13;;;;;;;35.98;38.83;99711.59;5069739;28;20208;-63
2022/07/03 09:19:40;;;;;;;3.85;3.65;;;;;;;36.00;36.51;99712.19;5067199;28;20877;-63
2022/07/03 09:22:21;;;;;;;3.88;3.53;;;;;;;35.93;34.95;99714.03;5069267;28;20243;-63
2022/07/03 09:24:48;;;;;;;2.92;2.72;;;;;;;35.70;35.16;99716.22;5067212;28;20235;-63
2022/07/03 09:27:18;;;;;;;3.47;3.30;;;;;;;35.95;35.74;99714.66;5068751;28;20237;-63
2022/07/03 09:29:59;;;;;;;3.25;3.05;;;;;;;35.47;33.47;99689.03;5069639;28;20220;-63
2022/07/03 09:32:26;;;;;;;3.40;3.13;;;;;;;35.56;35.04;99701.16;5068180;28;20730;-63
2022/07/03 09:35:12;;;;;;;3.42;3.22;;;;;;;35.66;34.94;99702.47;5067694;28;20694;-64
2022/07/03 09:37:40;;;;;;;3.78;3.47;;;;;;;35.64;35.19;99701.03;5064007;28;20227;-63
2022/07/03 09:40:08;;;;;;;3.35;3.25;;;;;;;35.38;36.23;99685.72;5069139;28;20200;-63
2022/07/03 09:42:35;;;;;;;4.10;3.90;;;;;;;35.22;35.23;99694.84;5067675;28;20206;-64
2022/07/03 09:45:03;;;;;;;3.05;2.95;;;;;;;35.41;37.77;99690.66;5068183;28;20196;-63
2022/07/03 09:47:30;;;;;;;3.28;3.08;;;;;;;35.59;37.12;99690.13;5067147;28;20207;-63
2022/07/03 09:49:59;;;;;;;3.35;3.17;;;;;;;35.55;37.46;99675.50;5073255;28;20227;-65
2022/07/03 09:52:34;;;;;;;4.22;3.97;;;;;;;35.42;37.16;99686.94;5070914;28;20225;-66
2022/07/03 09:55:03;;;;;;;4.00;3.78;;;;;;;35.53;39.20;99680.22;5072674;28;20204;-66
2022/07/03 09:57:30;;;;;;;3.00;2.90;;;;;;;35.83;36.28;99696.78;5071968;28;20204;-67
2022/07/03 10:00:15;;;;;;;6.68;3.45;;;;;;;35.57;35.97;99684.16;5072463;28;20507;-66
2022/07/03 10:02:57;;;;;;;3.03;2.92;;;;;;;35.55;36.85;99675.50;5070223;28;20204;-67
2022/07/03 10:05:26;;;;;;;3.72;3.45;;;;;;;35.64;36.04;99685.81;5071914;28;20664;-67
2022/07/03 10:07:58;;;;;;;3.22;3.08;;;;;;;35.49;35.81;99673.63;5071342;28;20213;-66
2022/07/03 10:10:28;;;;;;;3.72;3.53;;;;;;;35.54;38.12;99671.22;5071911;28;20560;-66
2022/07/03 10:12:56;;;;;;;4.57;4.38;;;;;;;35.25;38.33;99675.78;5071927;28;20196;-66
2022/07/03 10:15:26;;;;;;;3.60;3.40;;;;;;;35.13;36.20;99673.88;5070998;28;20204;-67
2022/07/03 10:17:54;;;;;;;3.72;3.53;;;;;;;35.34;36.45;99672.97;5070089;28;20200;-67
2022/07/03 10:20:26;;;;;;;3.40;3.30;;;;;;;35.10;37.25;99666.28;5070827;28;20682;-67
2022/07/03 10:22:54;;;;;;;3.38;3.28;;;;;;;35.22;37.83;99660.19;5071644;28;20223;-66
2022/07/03 10:25:22;;;;;;;3.67;3.58;;;;;;;35.44;37.13;99654.75;5072012;28;20196;-65
2022/07/03 10:27:49;;;;;;;3.13;3.03;;;;;;;35.16;36.63;99661.00;5072025;28;20216;-67
2022/07/03 10:30:17;;;;;;;4.22;3.33;;;;;;;35.15;38.66;99654.03;5071522;28;20216;-66
2022/07/03 10:32:47;;;;;;;3.05;2.95;;;;;;;35.09;37.03;99653.97;5071183;28;20671;-67
2022/07/03 10:35:18;;;;;;;3.67;3.45;;;;;;;34.95;39.60;99645.09;5068506;28;20195;-65
2022/07/03 10:37:58;;;;;;;4.70;3.20;;;;;;;35.01;36.63;99652.28;5069956;28;20230;-68
2022/07/03 10:46:13;;;;;;;3.28;3.17;;;;;;;34.81;37.25;99635.34;5068283;28;20594;-67
2022/07/03 10:48:58;;;;;;;6.95;3.53;;;;;;;34.89;39.11;99635.22;5070823;28;20220;-67
2022/07/03 10:51:25;;;;;;;4.38;4.18;;;;;;;34.92;39.02;99632.16;5071542;28;20634;-66
2022/07/03 10:54:13;;;;;;;4.43;4.13;;;;;;;35.08;38.71;99637.16;5071194;28;20200;-66
2022/07/03 10:57:13;;;;;;;3.72;3.42;;;;;;;34.83;38.34;99641.34;5069556;28;20208;-66
2022/07/03 11:00:00;;;;;;;3.72;3.63;;;;;;;34.88;39.11;99628.22;5069092;28;20287;-66
2022/07/03 11:02:30;;;;;;;3.30;3.20;;;;;;;35.09;39.45;99630.00;5069878;28;20207;-66
2022/07/03 11:05:19;;;;;;;4.25;3.90;;;;;;;35.09;38.09;99622.78;5068145;28;20265;-65
2022/07/03 11:08:13;;;;;;;3.95;3.75;;;;;;;35.13;40.29;99617.91;5064560;28;20266;-65
2022/07/03 11:10:44;;;;;;;4.10;3.80;;;;;;;35.24;39.16;99615.53;5069729;28;20208;-65
2022/07/03 11:13:16;;;;;;;3.92;3.72;;;;;;;34.83;39.23;99609.38;5067455;28;20254;-65
2022/07/03 11:15:46;;;;;;;4.20;3.90;;;;;;;34.73;39.11;99612.38;5067980;28;20219;-66
2022/07/03 11:18:18;;;;;;;4.35;3.95;;;;;;;34.47;39.65;99606.03;5067294;28;20226;-66
2022/07/03 11:21:17;;;;;;;4.32;4.07;;;;;;;34.26;39.97;99607.72;5068184;28;20206;-66
2022/07/03 11:24:05;;;;;;;4.40;4.20;;;;;;;34.43;40.71;99610.09;5060889;28;20213;-65
2022/07/03 11:26:32;;;;;;;4.38;4.07;;;;;;;34.63;41.56;99613.75;5066934;28;20239;-65
2022/07/03 11:28:59;;;;;;;4.65;4.35;;;;;;;34.44;40.64;99606.41;5067114;28;20274;-65
2022/07/03 11:31:26;;;;;;;4.15;3.92;;;;;;;34.59;41.41;99607.94;5070775;28;20207;-65
2022/07/03 11:33:59;;;;;;;5.57;5.28;;;;;;;34.53;40.32;99599.91;5069708;28;20216;-66
2022/07/03 11:36:29;;;;;;;4.90;4.05;;;;;;;34.38;39.77;99593.88;5068050;28;20604;-64
2022/07/03 11:39:11;;;;;;;4.88;4.60;;;;;;;34.38;41.31;99596.56;5065709;28;20207;-64
2022/07/03 11:41:45;;;;;;;4.63;4.22;;;;;;;34.35;39.36;99607.59;5067073;28;20211;-66
2022/07/03 11:44:21;;;;;;;6.25;5.60;;;;;;;34.39;41.31;99599.00;5068221;28;20203;-68
2022/07/03 11:46:51;;;;;;;4.22;4.03;;;;;;;34.35;40.21;99596.94;5067703;28;20688;-65
2022/07/03 11:49:18;;;;;;;4.25;4.05;;;;;;;34.38;41.21;99585.91;5069857;28;20215;-64
2022/07/03 11:51:58;;;;;;;4.53;4.32;;;;;;;34.52;40.33;99603.59;5070866;28;20688;-65
2022/07/03 11:54:25;;;;;;;8.88;4.95;;;;;;;34.23;40.41;99586.81;5071183;28;20200;-65